MAPA DE AEROPUERTO

INFORMACIÓN METAR y TAF

METAR FOR GCLA
ADDS - METARS form results

(0539 UTC 10 August 2020)
Data provider http://aviationweather.gov/metar/data/
 
METAR text: GCLA 100530Z AUTO 34009KT 9999 BKN034 24/18 Q1016
Conditions at: GCLA (LA PALMA AIRPORT, ES) observed 0530 UTC 10 August 2020
Temperature: 24.0°C (75°F)
Dewpoint: 18.0°C (64°F) [RH = 69%]
Pressure (altimeter): 30.00 inches Hg (1016.0 mb)
Winds: from the NNW (340 degrees) at 10 MPH (9 knots; 4.6 m/s)
Visibility: 6 or more miles (10+ km)
Ceiling: 3400 feet AGL
Clouds: broken clouds at 3400 feet AGL
Weather: no significant weather observed at this time

METAR text: GCLA 100500Z AUTO 34009KT 300V010 9999 BKN028 OVC033 23/19 Q1016
Conditions at: GCLA (LA PALMA AIRPORT, ES) observed 0500 UTC 10 August 2020
Temperature: 23.0°C (73°F)
Dewpoint: 19.0°C (66°F) [RH = 78%]
Pressure (altimeter): 30.00 inches Hg (1016.0 mb)
Winds: from the NNW (340 degrees) at 10 MPH (9 knots; 4.6 m/s)
Visibility: 6 or more miles (10+ km)
Ceiling: 2800 feet AGL
Clouds: broken clouds at 2800 feet AGL
overcast cloud deck at 3300 feet AGL
Weather: no significant weather observed at this time

Forecast for: GCLA (LA PALMA AIRPORT, ES)
Text: TAF GCLA 100200Z 1003/1103 35009KT 9999 BKN025 TX26/1014Z TN22/1006Z
Forecast period: 0300 UTC 10 August 2020 to 0300 UTC 11 August 2020
Forecast type: FROM: standard forecast or significant change
Winds: from the N (350 degrees) at 10 MPH (9 knots; 4.6 m/s)
Visibility: 6 or more miles (10+ km)
Ceiling: 2500 feet AGL
Clouds: broken clouds at 2500 feet AGL
Weather: no significant weather forecast for this period